METAR Data
IDs: Format: Raw Decoded Include TAF

Data at: 1337 UTC 19 Feb 2020

Region: TOP
KATL 191305Z 31008KT 1 1/2SM BR OVC004 10/08 A3023 RMK AO2 SFC VIS 5 CIG 003V005 TWRINC T01000083

KBOS 191254Z 28009KT 10SM SCT120 06/M03 A3005 RMK AO2 SLP176 T00561028

KBWI 191254Z 30010G15KT 10SM BKN100 BKN250 06/M05 A3028 RMK AO2 SLP253 T00611050

KCLE 191251Z 30011KT 10SM FEW017 BKN027 M01/M06 A3043 RMK AO2 SLP314 T10111056 $

KCLT 191252Z 03008KT 10SM OVC038 11/07 A3023 RMK AO2 RAE10 SLP233 P0000 T01060067 $

KCVG 191252Z 35006KT 5SM BR FEW300 M03/M05 A3046 RMK AO2 SLP321 T10331050

KDCA 191252Z 32010KT 10SM BKN090 07/M03 A3031 RMK AO2 SLP262 T00721033

KDEN 191253Z 31007KT 10SM BKN005 M07/M09 A3016 RMK AO2 SLP253 T10721094

KDFW 191253Z 02009KT 10SM SCT100 BKN270 05/02 A3030 RMK AO2 SLP259 T00500017 $

KDTW 191253Z 31010KT 10SM FEW029 FEW220 M06/M12 A3045 RMK AO2 SLP322 T10561117

KEWR 191251Z 32012G19KT 10SM FEW120 FEW200 06/M06 A3019 RMK SLP221 T00561056

KFLL 191253Z 14005KT 10SM SCT023 BKN045 25/22 A3017 RMK AO2 RAB16E36 SLP214 P0000 T02500217

KIAD 191252Z 35005KT 10SM BKN100 BKN220 05/M04 A3031 RMK AO2 SLP264 T00501039

KIAH 191253Z 03011KT 10SM -RA OVC008 13/11 A3020 RMK AO2 SLP227 P0000 T01280111

KJFK 191251Z 30009KT 10SM FEW075 SCT120 SCT250 06/M01 A3018 RMK AO2 SLP219 T00611011 $

KLAS 191256Z 22003KT 10SM BKN200 06/M08 A3006 RMK AO2 SLP177 T00611083

KLAX 191253Z 03004KT 10SM BKN015 OVC020 16/10 A3002 RMK AO2 SLP164 T01560100 $

KLGA 191251Z 31013KT 10SM FEW110 SCT250 05/M03 A3017 RMK AO2 SLP217 T00501028

KMCO 191253Z 20003KT 10SM FEW025 BKN080 23/21 A3019 RMK AO2 SLP220 T02280206

KMDW 191253Z 33010KT 10SM FEW025 M08/M16 A3058 RMK AO2 SLP370 T10831161

KMEM 191254Z COR 04010KT 10SM FEW017 FEW075 BKN090 03/M01 A3041 RMK AO2 SLP297 T00281006

KMIA 191253Z 12004KT 10SM FEW018 SCT040 26/21 A3017 RMK AO2 SLP218 T02560206

KMSP 191253Z 29004KT 10SM FEW095 M17/M22 A3064 RMK AO2 SLP397 T11721222

KORD 191251Z 32008KT 10SM FEW030 M08/M16 A3057 RMK AO2 SLP363 T10831161

KPDX 191253Z 13006KT 10SM CLR 03/M04 A3029 RMK AO2 SLP255 T00281039

KPHL 191254Z 32013KT 10SM BKN100 BKN300 06/M04 A3024 RMK AO2 SLP241 T00611044

KPHX 191251Z 11005KT 10SM BKN200 OVC250 13/04 A2996 RMK AO2 SLP134 T01280044 $

KPIT 191251Z 30005KT 10SM FEW016 FEW250 M03/M06 A3035 RMK AO2 SLP297 T10281056

KSAN 191251Z 02004KT 9SM OVC013 16/12 A3004 RMK AO2 SLP171 T01560122

KSEA 191253Z 01009KT 10SM CLR 01/M01 A3032 RMK AO2 SLP276 T00061011

KSFO 191256Z 17004KT 10SM FEW006 07/04 A3008 RMK AO2 SLP186 T00670039

KSLC 191254Z AUTO 00000KT 10SM SCT200 M04/M07 A3025 RMK AO2 SLP261 T10441072

KSTL 191251Z 01007KT 10SM FEW200 SCT250 M03/M06 A3055 RMK AO2 SLP357 T10281061

KTPA 191253Z 00000KT 10SM SCT023 BKN029 BKN050 BKN250 23/19 A3019 RMK AO2 SLP222 T02280189